Time;durP1;ratioP1;P1;durP2;ratioP2;P2;SDS_P1;SDS_P2;PMS_P1;PMS_P2;Temp;Humidity;BMP_temperature;BMP_pressure;BME280_temperature;BME280_humidity;BME280_pressure;Samples;Min_cycle;Max_cycle;Signal;HPM_P1;HPM_P2
2023/03/19 00:01:58;;;;;;;;;;;5.50;68.60;;;;;;5021989;28;90185;-39
2023/03/19 00:04:24;;;;;;;;;;;5.50;68.60;;;;;;5017892;28;88315;-39
2023/03/19 00:06:50;;;;;;;;;;;5.50;68.40;;;;;;5016162;28;89329;-39
2023/03/19 00:09:16;;;;;;;;;;;5.50;68.60;;;;;;5020755;28;87967;-38
2023/03/19 00:11:41;;;;;;;;;;;5.50;68.50;;;;;;5018384;28;87464;-38
2023/03/19 00:14:07;;;;;;;;;;;5.50;68.60;;;;;;5018409;28;88008;-38
2023/03/19 00:16:32;;;;;;;;;;;5.50;68.60;;;;;;5021453;28;87809;-38
2023/03/19 00:18:58;;;;;;;;;;;5.40;69.10;;;;;;5021456;28;87267;-38
2023/03/19 00:21:24;;;;;;;;;;;5.50;68.70;;;;;;5010100;28;88042;-38
2023/03/19 00:23:50;;;;;;;;;;;5.40;68.40;;;;;;5007604;28;87053;-38
2023/03/19 00:26:16;;;;;;;;;;;5.40;68.50;;;;;;5003747;28;90138;-39
2023/03/19 00:28:41;;;;;;;;;;;5.40;68.50;;;;;;5004510;28;87304;-38
2023/03/19 00:31:12;;;;;;;;;;;5.40;68.50;;;;;;5004921;28;88766;-38
2023/03/19 00:33:39;;;;;;;;;;;5.40;68.50;;;;;;5015477;28;89327;-38
2023/03/19 00:36:05;;;;;;;;;;;5.40;68.60;;;;;;5014260;28;87115;-38
2023/03/19 00:38:31;;;;;;;;;;;5.40;68.50;;;;;;5004435;28;88669;-38
2023/03/19 00:40:57;;;;;;;;;;;5.40;68.60;;;;;;5003891;28;89473;-38
2023/03/19 00:43:23;;;;;;;;;;;5.40;68.50;;;;;;5004815;28;86501;-38
2023/03/19 00:45:49;;;;;;;;;;;5.30;68.50;;;;;;5007129;28;88061;-38
2023/03/19 00:48:14;;;;;;;;;;;5.30;68.60;;;;;;5004458;28;87100;-38
2023/03/19 00:50:40;;;;;;;;;;;5.30;68.60;;;;;;5019354;28;88694;-38
2023/03/19 00:53:05;;;;;;;;;;;5.30;68.50;;;;;;5003930;28;89446;-38
2023/03/19 00:55:31;;;;;;;;;;;5.30;68.60;;;;;;5004190;28;87104;-38
2023/03/19 00:57:56;;;;;;;;;;;5.30;68.50;;;;;;5004251;28;88842;-38
2023/03/19 01:00:22;;;;;;;;;;;5.30;68.40;;;;;;5020898;28;90307;-38
2023/03/19 01:02:48;;;;;;;;;;;5.30;68.60;;;;;;5020332;28;87223;-38
2023/03/19 01:05:13;;;;;;;;;;;5.30;68.60;;;;;;5020690;28;87351;-38
2023/03/19 01:07:39;;;;;;;;;;;5.30;68.50;;;;;;5023495;28;88627;-38
2023/03/19 01:10:05;;;;;;;;;;;5.20;68.50;;;;;;5020215;28;88101;-38
2023/03/19 01:12:30;;;;;;;;;;;5.30;68.60;;;;;;5017766;28;89105;-38
2023/03/19 01:14:55;;;;;;;;;;;5.30;68.60;;;;;;5018224;28;88322;-38
2023/03/19 01:17:21;;;;;;;;;;;5.20;68.50;;;;;;5020963;28;89922;-38
2023/03/19 01:19:48;;;;;;;;;;;5.20;68.60;;;;;;5019100;28;89521;-38
2023/03/19 01:22:15;;;;;;;;;;;5.20;68.50;;;;;;5020615;28;87146;-38
2023/03/19 01:24:41;;;;;;;;;;;5.20;68.50;;;;;;5018263;28;88880;-38
2023/03/19 01:27:06;;;;;;;;;;;5.20;68.50;;;;;;5018600;28;88443;-38
2023/03/19 01:29:32;;;;;;;;;;;5.20;68.60;;;;;;5022902;28;87198;-38
2023/03/19 01:31:58;;;;;;;;;;;5.20;68.60;;;;;;5011019;28;87429;-38
2023/03/19 01:34:23;;;;;;;;;;;5.20;68.50;;;;;;5018251;28;87817;-38
2023/03/19 01:36:49;;;;;;;;;;;5.10;68.60;;;;;;5004801;28;89832;-38
2023/03/19 01:39:14;;;;;;;;;;;5.10;68.70;;;;;;5017532;28;91569;-38
2023/03/19 01:41:40;;;;;;;;;;;5.10;68.60;;;;;;5010216;28;88019;-38
2023/03/19 01:44:24;;;;;;;;;;;5.10;68.60;;;;;;5003454;28;88856;-38
2023/03/19 01:46:50;;;;;;;;;;;5.10;68.70;;;;;;5014612;28;89216;-38
2023/03/19 01:49:17;;;;;;;;;;;5.10;68.60;;;;;;5011363;28;87922;-38
2023/03/19 01:51:43;;;;;;;;;;;5.10;68.40;;;;;;5014007;28;88109;-39
2023/03/19 01:54:12;;;;;;;;;;;5.10;68.40;;;;;;5016228;28;88134;-39
2023/03/19 01:56:38;;;;;;;;;;;5.10;68.50;;;;;;5014066;28;89055;-39
2023/03/19 01:59:22;;;;;;;;;;;5.10;68.50;;;;;;5002833;28;89487;-38
2023/03/19 02:01:56;;;;;;;;;;;5.10;68.40;;;;;;5003322;28;87141;-38
2023/03/19 02:04:22;;;;;;;;;;;5.00;68.50;;;;;;5012642;28;89143;-38
2023/03/19 02:06:47;;;;;;;;;;;5.00;68.70;;;;;;5003225;28;88362;-38
2023/03/19 02:09:13;;;;;;;;;;;5.00;68.70;;;;;;5017100;28;87724;-38
2023/03/19 02:11:39;;;;;;;;;;;5.00;68.40;;;;;;5007667;28;87661;-38
2023/03/19 02:14:05;;;;;;;;;;;5.00;68.70;;;;;;5003067;28;87145;-39
2023/03/19 02:16:30;;;;;;;;;;;5.00;68.60;;;;;;5003139;28;89010;-39
2023/03/19 02:18:56;;;;;;;;;;;5.00;68.70;;;;;;5002615;28;89502;-39
2023/03/19 02:21:22;;;;;;;;;;;4.90;68.70;;;;;;5003408;28;86365;-38
2023/03/19 02:23:56;;;;;;;;;;;4.90;68.50;;;;;;5013702;28;88199;-38
2023/03/19 02:26:23;;;;;;;;;;;4.90;68.50;;;;;;5006861;28;88017;-38
2023/03/19 02:28:49;;;;;;;;;;;4.90;68.40;;;;;;5008416;28;88146;-38
2023/03/19 02:31:17;;;;;;;;;;;4.90;68.60;;;;;;5017557;28;89769;-38
2023/03/19 02:33:42;;;;;;;;;;;4.90;68.50;;;;;;5005133;28;89491;-38
2023/03/19 02:36:11;;;;;;;;;;;4.90;68.50;;;;;;5018115;28;88710;-38
2023/03/19 02:38:37;;;;;;;;;;;4.90;68.50;;;;;;5016651;28;89543;-38
2023/03/19 02:41:04;;;;;;;;;;;4.80;68.60;;;;;;5017215;28;87691;-38
2023/03/19 02:43:31;;;;;;;;;;;4.90;68.40;;;;;;5017450;28;88970;-38
2023/03/19 02:45:56;;;;;;;;;;;4.80;68.50;;;;;;5017607;28;88828;-38
2023/03/19 02:48:22;;;;;;;;;;;4.80;68.50;;;;;;5018663;28;87811;-38
2023/03/19 02:50:48;;;;;;;;;;;4.80;68.30;;;;;;5017369;28;87282;-38
2023/03/19 02:53:14;;;;;;;;;;;4.80;68.40;;;;;;5007887;28;90411;-38
2023/03/19 02:55:40;;;;;;;;;;;4.80;68.50;;;;;;5005141;28;87020;-38
2023/03/19 02:58:06;;;;;;;;;;;4.80;68.50;;;;;;5016958;28;89644;-38
2023/03/19 03:00:32;;;;;;;;;;;4.70;68.50;;;;;;5017962;28;87186;-38
2023/03/19 03:02:58;;;;;;;;;;;4.70;68.50;;;;;;5002697;28;87590;-38
2023/03/19 03:05:23;;;;;;;;;;;4.80;68.50;;;;;;5001900;28;89358;-39
2023/03/19 03:07:49;;;;;;;;;;;4.80;68.50;;;;;;5009560;28;87170;-39
2023/03/19 03:10:14;;;;;;;;;;;4.70;68.70;;;;;;5013515;28;87879;-38
2023/03/19 03:12:40;;;;;;;;;;;4.70;68.70;;;;;;5010665;28;87689;-38
2023/03/19 03:15:07;;;;;;;;;;;4.70;68.60;;;;;;5002402;28;87327;-38
2023/03/19 03:17:35;;;;;;;;;;;4.70;68.60;;;;;;5016160;28;88734;-38
2023/03/19 03:20:00;;;;;;;;;;;4.70;68.50;;;;;;5015656;28;87417;-38
2023/03/19 03:22:26;;;;;;;;;;;4.70;68.60;;;;;;5018887;28;88497;-38
2023/03/19 03:24:52;;;;;;;;;;;4.70;68.70;;;;;;5018258;28;89905;-38
2023/03/19 03:27:17;;;;;;;;;;;4.70;68.50;;;;;;5001658;28;87251;-38
2023/03/19 03:29:42;;;;;;;;;;;4.60;68.60;;;;;;5019124;28;89305;-38
2023/03/19 03:32:08;;;;;;;;;;;4.60;68.50;;;;;;5014992;28;89387;-38
2023/03/19 03:34:34;;;;;;;;;;;4.60;68.50;;;;;;5018019;28;86564;-38
2023/03/19 03:36:59;;;;;;;;;;;4.60;68.50;;;;;;5007227;28;88351;-38
2023/03/19 03:39:25;;;;;;;;;;;4.60;68.60;;;;;;5004741;28;89021;-38
2023/03/19 03:41:51;;;;;;;;;;;4.60;68.50;;;;;;5001268;28;89453;-38
2023/03/19 03:44:17;;;;;;;;;;;4.60;68.40;;;;;;5001644;28;89603;-38
2023/03/19 03:46:42;;;;;;;;;;;4.50;68.50;;;;;;5004211;28;87166;-38
2023/03/19 03:49:08;;;;;;;;;;;4.50;68.50;;;;;;5022077;28;89132;-38
2023/03/19 03:51:34;;;;;;;;;;;4.50;68.60;;;;;;5018215;28;89395;-38
2023/03/19 03:54:00;;;;;;;;;;;4.50;68.80;;;;;;5019777;28;87493;-38
2023/03/19 03:56:26;;;;;;;;;;;4.50;69.20;;;;;;5020013;28;88794;-38
2023/03/19 03:58:51;;;;;;;;;;;4.50;68.30;;;;;;5008356;28;88622;-38
2023/03/19 04:01:18;;;;;;;;;;;4.50;68.60;;;;;;5005412;28;88201;-38
2023/03/19 04:03:44;;;;;;;;;;;4.50;68.40;;;;;;5004963;28;89882;-38
2023/03/19 04:06:17;;;;;;;;;;;4.50;68.50;;;;;;5004608;28;88089;-38
2023/03/19 04:08:42;;;;;;;;;;;4.50;68.30;;;;;;5006897;28;90357;-39
2023/03/19 04:11:08;;;;;;;;;;;4.40;68.50;;;;;;5008779;28;89405;-38
2023/03/19 04:13:35;;;;;;;;;;;4.40;68.50;;;;;;5013894;28;87235;-38
2023/03/19 04:16:05;;;;;;;;;;;4.40;68.60;;;;;;5005148;28;88860;-39
2023/03/19 04:18:31;;;;;;;;;;;4.40;68.40;;;;;;5018410;28;89504;-38
2023/03/19 04:20:56;;;;;;;;;;;4.40;68.50;;;;;;5020547;28;87171;-38
2023/03/19 04:23:40;;;;;;;;;;;4.40;68.70;;;;;;5005224;28;88752;-38
2023/03/19 04:26:06;;;;;;;;;;;4.40;68.50;;;;;;5004618;28;87209;-39
2023/03/19 04:28:31;;;;;;;;;;;4.40;68.40;;;;;;5004563;28;89588;-38
2023/03/19 04:30:58;;;;;;;;;;;4.40;68.50;;;;;;5008951;28;90544;-39
2023/03/19 04:33:24;;;;;;;;;;;4.30;68.40;;;;;;5015284;28;87574;-39
2023/03/19 04:35:49;;;;;;;;;;;4.30;68.50;;;;;;5004856;28;88085;-38
2023/03/19 04:38:15;;;;;;;;;;;4.30;68.50;;;;;;5004089;28;89265;-39
2023/03/19 04:40:41;;;;;;;;;;;4.30;68.70;;;;;;5011533;28;87218;-38
2023/03/19 04:43:06;;;;;;;;;;;4.30;68.60;;;;;;5005718;28;88453;-38
2023/03/19 04:45:33;;;;;;;;;;;4.30;68.40;;;;;;5018572;28;87262;-39
2023/03/19 04:47:58;;;;;;;;;;;4.30;68.60;;;;;;5013631;28;88801;-38
2023/03/19 04:50:24;;;;;;;;;;;4.30;68.50;;;;;;5006038;28;89396;-38
2023/03/19 04:52:49;;;;;;;;;;;4.20;68.50;;;;;;5020191;28;87150;-38
2023/03/19 04:55:15;;;;;;;;;;;4.20;68.50;;;;;;5018934;28;88125;-38
2023/03/19 04:57:40;;;;;;;;;;;4.20;68.50;;;;;;5014414;28;88728;-38
2023/03/19 05:00:06;;;;;;;;;;;4.20;68.50;;;;;;5016193;28;87083;-38
2023/03/19 05:02:31;;;;;;;;;;;4.20;68.50;;;;;;5020634;28;89179;-38
2023/03/19 05:04:57;;;;;;;;;;;4.20;68.50;;;;;;5008623;28;89269;-38
2023/03/19 05:07:22;;;;;;;;;;;4.20;68.30;;;;;;5004021;28;89590;-38
2023/03/19 05:09:48;;;;;;;;;;;4.20;68.50;;;;;;5015981;28;89274;-38
2023/03/19 05:12:14;;;;;;;;;;;4.20;68.50;;;;;;5020901;28;86400;-38
2023/03/19 05:14:40;;;;;;;;;;;4.20;68.30;;;;;;5019820;28;87922;-37
2023/03/19 05:17:06;;;;;;;;;;;4.20;68.40;;;;;;5017774;28;88524;-38
2023/03/19 05:19:32;;;;;;;;;;;4.20;68.30;;;;;;5003718;28;88642;-38
2023/03/19 05:21:58;;;;;;;;;;;4.10;68.20;;;;;;5004790;28;89684;-38
2023/03/19 05:24:24;;;;;;;;;;;4.10;68.10;;;;;;5018400;28;89639;-38
2023/03/19 05:26:49;;;;;;;;;;;4.10;68.40;;;;;;5021241;28;87453;-38
2023/03/19 05:29:15;;;;;;;;;;;4.20;68.30;;;;;;5021718;28;87997;-38
2023/03/19 05:31:40;;;;;;;;;;;4.20;68.30;;;;;;5003908;28;87171;-38
2023/03/19 05:34:06;;;;;;;;;;;4.20;68.30;;;;;;5003728;28;87601;-38
2023/03/19 05:36:32;;;;;;;;;;;4.10;68.40;;;;;;5004073;28;88891;-38
2023/03/19 05:38:58;;;;;;;;;;;4.10;68.20;;;;;;5003154;28;88509;-38
2023/03/19 05:41:23;;;;;;;;;;;4.10;68.30;;;;;;5003488;28;88677;-39
2023/03/19 05:43:50;;;;;;;;;;;4.10;68.10;;;;;;5008255;28;89718;-38
2023/03/19 05:46:15;;;;;;;;;;;4.10;68.20;;;;;;5018081;28;87166;-38
2023/03/19 05:48:41;;;;;;;;;;;4.10;68.20;;;;;;5021582;28;88902;-38
2023/03/19 05:51:06;;;;;;;;;;;4.10;68.30;;;;;;5018371;28;87059;-38
2023/03/19 05:53:32;;;;;;;;;;;4.10;68.20;;;;;;5016012;28;89064;-38
2023/03/19 05:55:58;;;;;;;;;;;4.10;68.10;;;;;;5002941;28;89288;-38
2023/03/19 05:58:23;;;;;;;;;;;4.10;68.10;;;;;;5003665;28;87170;-38
2023/03/19 06:00:49;;;;;;;;;;;4.10;67.90;;;;;;5003894;28;89104;-38
2023/03/19 06:03:15;;;;;;;;;;;4.10;68.10;;;;;;5002909;28;89559;-38
2023/03/19 06:05:41;;;;;;;;;;;4.10;68.10;;;;;;5018701;28;87236;-38
2023/03/19 06:08:06;;;;;;;;;;;4.00;68.10;;;;;;5017723;28;88897;-38
2023/03/19 06:10:34;;;;;;;;;;;4.10;68.10;;;;;;5015250;28;87269;-38
2023/03/19 06:12:59;;;;;;;;;;;4.00;68.10;;;;;;5002941;28;89002;-38
2023/03/19 06:15:26;;;;;;;;;;;4.10;68.20;;;;;;5008518;28;88297;-39
2023/03/19 06:17:51;;;;;;;;;;;4.10;68.10;;;;;;5018302;28;87294;-39
2023/03/19 06:20:17;;;;;;;;;;;4.10;68.20;;;;;;5003761;28;87388;-38
2023/03/19 06:22:43;;;;;;;;;;;4.10;68.20;;;;;;5018194;28;87909;-38
2023/03/19 06:25:08;;;;;;;;;;;4.00;68.10;;;;;;5018763;28;86329;-38
2023/03/19 06:27:34;;;;;;;;;;;4.00;68.20;;;;;;5019852;28;88228;-38
2023/03/19 06:29:59;;;;;;;;;;;4.00;68.30;;;;;;5020086;28;89271;-38
2023/03/19 06:32:25;;;;;;;;;;;4.00;68.20;;;;;;5017562;28;88050;-38
2023/03/19 06:34:50;;;;;;;;;;;4.10;68.10;;;;;;5018811;28;89461;-38
2023/03/19 06:37:17;;;;;;;;;;;4.10;68.20;;;;;;5005469;28;87058;-38
2023/03/19 06:39:42;;;;;;;;;;;4.00;68.10;;;;;;5018106;28;89149;-38
2023/03/19 06:42:08;;;;;;;;;;;4.10;68.10;;;;;;5004744;28;88284;-38
2023/03/19 06:44:34;;;;;;;;;;;4.10;68.00;;;;;;5019949;28;87198;-38
2023/03/19 06:46:59;;;;;;;;;;;4.00;68.10;;;;;;5017379;28;88491;-38
2023/03/19 06:49:24;;;;;;;;;;;4.10;68.10;;;;;;5004869;28;87602;-38
2023/03/19 06:51:50;;;;;;;;;;;4.10;68.00;;;;;;5005413;28;87113;-39
2023/03/19 06:54:15;;;;;;;;;;;4.10;68.00;;;;;;5002123;28;89646;-38
2023/03/19 06:56:41;;;;;;;;;;;4.10;68.20;;;;;;5001873;28;88742;-38
2023/03/19 06:59:07;;;;;;;;;;;4.10;68.10;;;;;;5002440;28;88736;-38
2023/03/19 07:01:32;;;;;;;;;;;4.10;68.10;;;;;;5002405;28;89351;-38
2023/03/19 07:03:57;;;;;;;;;;;4.10;68.10;;;;;;5006794;28;87331;-37
2023/03/19 07:06:23;;;;;;;;;;;4.10;68.10;;;;;;5002681;28;87778;-38
2023/03/19 07:08:48;;;;;;;;;;;4.10;68.30;;;;;;5001990;28;88641;-38
2023/03/19 07:11:15;;;;;;;;;;;4.00;68.20;;;;;;5002155;28;87180;-38
2023/03/19 07:13:40;;;;;;;;;;;4.00;68.30;;;;;;5005105;28;88759;-38
2023/03/19 07:16:07;;;;;;;;;;;4.00;68.40;;;;;;5002078;28;87095;-38
2023/03/19 07:18:32;;;;;;;;;;;4.00;68.50;;;;;;5003858;28;87749;-38
2023/03/19 07:20:58;;;;;;;;;;;4.00;68.60;;;;;;5009468;28;90740;-38
2023/03/19 07:23:23;;;;;;;;;;;4.00;68.60;;;;;;5005355;28;87092;-38
2023/03/19 07:25:49;;;;;;;;;;;4.00;68.60;;;;;;5018964;28;87491;-38
2023/03/19 07:28:15;;;;;;;;;;;4.00;68.60;;;;;;5020482;28;89416;-37
2023/03/19 07:30:40;;;;;;;;;;;4.00;68.60;;;;;;5021475;28;87115;-38
2023/03/19 07:33:06;;;;;;;;;;;4.00;68.60;;;;;;5021524;28;89191;-38
2023/03/19 07:35:32;;;;;;;;;;;4.00;68.50;;;;;;5021041;28;89126;-38
2023/03/19 07:37:59;;;;;;;;;;;4.00;68.60;;;;;;5007183;28;87884;-38
2023/03/19 07:40:24;;;;;;;;;;;4.00;68.60;;;;;;5004914;28;89356;-38
2023/03/19 07:42:50;;;;;;;;;;;4.00;68.70;;;;;;5009226;28;87939;-38
2023/03/19 07:45:15;;;;;;;;;;;4.00;68.70;;;;;;5021126;28;88509;-38
2023/03/19 07:47:41;;;;;;;;;;;4.00;68.70;;;;;;5020094;28;89215;-38
2023/03/19 07:50:07;;;;;;;;;;;4.00;68.70;;;;;;5021783;28;87312;-38
2023/03/19 07:52:33;;;;;;;;;;;4.00;68.70;;;;;;5020625;28;89057;-38
2023/03/19 07:54:58;;;;;;;;;;;4.00;68.70;;;;;;5020189;28;89575;-38
2023/03/19 07:57:24;;;;;;;;;;;4.00;68.80;;;;;;5025803;28;87052;-38
2023/03/19 07:59:50;;;;;;;;;;;4.00;68.80;;;;;;5019918;28;89628;-38
2023/03/19 08:02:16;;;;;;;;;;;4.00;68.80;;;;;;5020864;28;86514;-38
2023/03/19 08:04:42;;;;;;;;;;;4.10;68.90;;;;;;5021037;28;88119;-38
2023/03/19 08:07:11;;;;;;;;;;;4.00;68.80;;;;;;5018162;28;89253;-38
2023/03/19 08:09:38;;;;;;;;;;;4.10;68.80;;;;;;5017762;28;88910;-38
2023/03/19 08:12:04;;;;;;;;;;;4.10;68.90;;;;;;5004785;28;89832;-38
2023/03/19 08:14:29;;;;;;;;;;;4.10;68.90;;;;;;5004459;28;89648;-38
2023/03/19 08:16:55;;;;;;;;;;;4.00;68.90;;;;;;5007951;28;87715;-38
2023/03/19 08:19:21;;;;;;;;;;;4.00;68.90;;;;;;5004451;28;89679;-38
2023/03/19 08:21:47;;;;;;;;;;;4.10;69.00;;;;;;5004741;28;87196;-38
2023/03/19 08:24:12;;;;;;;;;;;4.00;69.00;;;;;;5004826;28;88961;-38
2023/03/19 08:26:38;;;;;;;;;;;4.00;69.10;;;;;;5006155;28;88651;-38
2023/03/19 08:29:04;;;;;;;;;;;4.00;69.00;;;;;;5020892;28;87821;-38
2023/03/19 08:31:31;;;;;;;;;;;4.10;69.10;;;;;;5023393;28;87069;-39
2023/03/19 08:33:59;;;;;;;;;;;4.00;69.00;;;;;;5019788;28;88897;-39
2023/03/19 08:36:24;;;;;;;;;;;4.10;69.20;;;;;;5007485;28;87119;-38
2023/03/19 08:38:53;;;;;;;;;;;4.00;69.20;;;;;;5023214;28;87876;-38
2023/03/19 08:41:19;;;;;;;;;;;4.00;69.30;;;;;;5017466;28;87271;-38
2023/03/19 08:43:45;;;;;;;;;;;4.00;69.50;;;;;;5004294;28;88991;-39
2023/03/19 08:46:11;;;;;;;;;;;4.00;69.50;;;;;;5004126;28;88273;-38
2023/03/19 08:48:36;;;;;;;;;;;4.00;69.40;;;;;;5004834;28;87205;-38
2023/03/19 08:51:02;;;;;;;;;;;4.00;69.50;;;;;;5011307;28;88902;-38
2023/03/19 08:53:28;;;;;;;;;;;4.10;69.40;;;;;;5007342;28;89830;-38
2023/03/19 08:55:55;;;;;;;;;;;4.10;69.40;;;;;;5004262;28;87132;-39
2023/03/19 08:58:21;;;;;;;;;;;4.10;69.40;;;;;;5003819;28;88110;-38
2023/03/19 09:00:46;;;;;;;;;;;4.10;69.20;;;;;;5006780;28;89385;-38
2023/03/19 09:03:12;;;;;;;;;;;4.10;69.10;;;;;;5020840;28;88906;-38
2023/03/19 09:05:38;;;;;;;;;;;4.20;69.20;;;;;;5020449;28;89707;-39
2023/03/19 09:08:03;;;;;;;;;;;4.20;69.10;;;;;;5017288;28;87183;-38
2023/03/19 09:10:29;;;;;;;;;;;4.20;69.10;;;;;;5020997;28;87854;-38
2023/03/19 09:12:54;;;;;;;;;;;4.20;69.10;;;;;;5016238;28;89529;-38
2023/03/19 09:15:20;;;;;;;;;;;4.20;69.10;;;;;;5004535;28;87330;-38
2023/03/19 09:17:45;;;;;;;;;;;4.20;69.20;;;;;;5003950;28;87670;-38
2023/03/19 09:20:11;;;;;;;;;;;4.20;69.20;;;;;;5019928;28;88478;-38
2023/03/19 09:22:37;;;;;;;;;;;4.20;69.20;;;;;;5022542;28;88229;-38
2023/03/19 09:25:02;;;;;;;;;;;4.20;69.30;;;;;;5009399;28;88122;-38
2023/03/19 09:27:28;;;;;;;;;;;4.20;69.20;;;;;;5018676;28;87076;-38
2023/03/19 09:29:54;;;;;;;;;;;4.30;69.20;;;;;;5019222;28;89236;-38
2023/03/19 09:32:20;;;;;;;;;;;4.20;69.20;;;;;;5019258;28;88838;-38
2023/03/19 09:34:46;;;;;;;;;;;4.30;69.30;;;;;;5018648;28;87274;-38
2023/03/19 09:37:12;;;;;;;;;;;4.20;69.30;;;;;;5017838;28;88864;-37
2023/03/19 09:39:37;;;;;;;;;;;4.30;69.40;;;;;;5019253;28;87472;-38
2023/03/19 09:42:12;;;;;;;;;;;4.30;69.30;;;;;;5017684;28;87947;-38
2023/03/19 09:44:40;;;;;;;;;;;4.30;69.20;;;;;;5010554;28;88899;-38
2023/03/19 09:47:11;;;;;;;;;;;4.30;69.30;;;;;;5015720;28;88139;-38
2023/03/19 09:49:39;;;;;;;;;;;4.30;69.30;;;;;;5017617;28;88298;-38
2023/03/19 09:52:05;;;;;;;;;;;4.30;69.30;;;;;;5018563;28;89458;-38
2023/03/19 09:54:31;;;;;;;;;;;4.40;69.30;;;;;;5012517;28;87192;-38
2023/03/19 09:56:56;;;;;;;;;;;4.40;69.30;;;;;;5010232;28;88661;-38
2023/03/19 09:59:22;;;;;;;;;;;4.40;69.40;;;;;;5012974;28;89932;-38
2023/03/19 10:01:51;;;;;;;;;;;4.40;69.30;;;;;;5003504;28;87155;-38
2023/03/19 10:04:23;;;;;;;;;;;4.40;69.30;;;;;;5006136;28;89124;-38
2023/03/19 10:06:51;;;;;;;;;;;4.40;69.30;;;;;;5015064;28;87205;-38
2023/03/19 10:09:36;;;;;;;;;;;4.50;69.40;;;;;;5020143;28;88859;-38
2023/03/19 10:12:20;;;;;;;;;;;4.50;69.30;;;;;;5020074;28;90413;-38
2023/03/19 10:15:04;;;;;;;;;;;4.50;69.40;;;;;;5002886;28;87432;-38
2023/03/19 10:17:32;;;;;;;;;;;4.50;69.20;;;;;;5018190;28;88651;-38
2023/03/19 10:20:01;;;;;;;;;;;4.50;69.30;;;;;;5017827;28;89499;-38
2023/03/19 10:22:34;;;;;;;;;;;4.50;69.30;;;;;;5019065;28;87126;-38
2023/03/19 10:25:00;;;;;;;;;;;4.60;69.30;;;;;;5018015;28;87879;-38
2023/03/19 10:27:28;;;;;;;;;;;4.60;69.20;;;;;;5021325;28;89384;-38
2023/03/19 10:29:54;;;;;;;;;;;4.60;69.20;;;;;;5017084;28;88050;-38
2023/03/19 10:32:26;;;;;;;;;;;4.70;69.30;;;;;;5016845;28;88936;-38
2023/03/19 10:34:52;;;;;;;;;;;4.70;69.20;;;;;;5018394;28;87065;-38
2023/03/19 10:37:21;;;;;;;;;;;4.70;69.20;;;;;;5016787;28;89030;-38
2023/03/19 10:39:50;;;;;;;;;;;4.70;69.20;;;;;;5002684;28;89410;-38
2023/03/19 10:42:19;;;;;;;;;;;4.70;69.20;;;;;;5019723;28;87619;-38
2023/03/19 10:44:47;;;;;;;;;;;4.80;69.30;;;;;;5019223;28;88768;-38
2023/03/19 10:47:14;;;;;;;;;;;4.80;69.20;;;;;;5002262;28;88252;-38
2023/03/19 10:49:40;;;;;;;;;;;4.80;69.20;;;;;;5005204;28;86994;-39
2023/03/19 10:52:15;;;;;;;;;;;4.80;69.20;;;;;;5001985;28;90095;-38
2023/03/19 10:54:42;;;;;;;;;;;4.80;69.20;;;;;;5002980;28;87018;-39
2023/03/19 10:57:19;;;;;;;;;;;4.80;69.20;;;;;;5015893;28;89674;-38
2023/03/19 10:59:46;;;;;;;;;;;4.90;69.20;;;;;;5015832;28;89435;-38
2023/03/19 11:02:22;;;;;;;;;;;4.90;69.20;;;;;;5001808;28;88077;-38
2023/03/19 11:04:48;;;;;;;;;;;4.90;69.30;;;;;;5002561;28;88333;-38
2023/03/19 11:07:18;;;;;;;;;;;4.90;69.30;;;;;;5002203;28;89482;-39
2023/03/19 11:09:45;;;;;;;;;;;5.00;69.40;;;;;;5017676;28;87121;-38
2023/03/19 11:12:19;;;;;;;;;;;5.00;69.50;;;;;;5023630;28;88979;-39
2023/03/19 11:14:50;;;;;;;;;;;5.00;69.50;;;;;;5007800;28;87337;-39
2023/03/19 11:17:25;;;;;;;;;;;5.00;69.50;;;;;;5009588;28;89056;-38
2023/03/19 11:19:52;;;;;;;;;;;5.10;69.60;;;;;;5002825;28;88312;-39
2023/03/19 11:22:22;;;;;;;;;;;5.10;69.50;;;;;;5002366;28;87282;-38
2023/03/19 11:24:52;;;;;;;;;;;5.10;69.40;;;;;;5002230;28;87865;-38
2023/03/19 11:27:18;;;;;;;;;;;5.10;69.40;;;;;;5000746;28;89237;-38
2023/03/19 11:29:44;;;;;;;;;;;5.10;69.40;;;;;;5002456;28;87108;-38
2023/03/19 11:32:09;;;;;;;;;;;5.20;69.40;;;;;;5004372;28;88837;-38
2023/03/19 11:34:48;;;;;;;;;;;5.20;69.40;;;;;;5021072;28;89868;-38
2023/03/19 11:37:27;;;;;;;;;;;5.20;69.50;;;;;;5014101;28;87421;-38
2023/03/19 11:39:55;;;;;;;;;;;5.30;69.50;;;;;;5011891;28;89807;-38
2023/03/19 11:42:27;;;;;;;;;;;5.30;69.50;;;;;;5019445;28;86994;-38
2023/03/19 11:44:58;;;;;;;;;;;5.30;69.50;;;;;;5017844;28;88786;-38
2023/03/19 11:47:33;;;;;;;;;;;5.30;69.50;;;;;;5016224;28;89066;-39
2023/03/19 11:49:59;;;;;;;;;;;5.40;70.10;;;;;;5015075;28;87180;-38
2023/03/19 11:52:30;;;;;;;;;;;5.40;69.50;;;;;;5015298;28;88871;-38
2023/03/19 11:54:56;;;;;;;;;;;5.50;69.50;;;;;;5001555;28;89752;-38
2023/03/19 11:57:40;;;;;;;;;;;5.50;69.40;;;;;;5004925;28;87700;-38
2023/03/19 12:00:34;;;;;;;;;;;5.50;69.40;;;;;;5001762;28;88007;-38
2023/03/19 12:03:03;;;;;;;;;;;5.50;69.40;;;;;;5006480;28;87229;-39
2023/03/19 12:05:35;;;;;;;;;;;5.60;69.50;;;;;;5015171;28;88959;-38
2023/03/19 12:08:03;;;;;;;;;;;5.60;69.40;;;;;;5017912;28;88032;-38
2023/03/19 12:10:29;;;;;;;;;;;5.60;69.40;;;;;;5020688;28;86521;-38
2023/03/19 12:12:54;;;;;;;;;;;5.60;69.40;;;;;;5018614;28;87999;-38
2023/03/19 12:15:20;;;;;;;;;;;5.70;69.40;;;;;;5019751;28;89331;-38
2023/03/19 12:17:45;;;;;;;;;;;5.70;69.40;;;;;;5023606;28;88056;-38
2023/03/19 12:20:14;;;;;;;;;;;5.70;69.40;;;;;;5007624;28;89059;-38
2023/03/19 12:22:40;;;;;;;;;;;5.70;69.30;;;;;;5017693;28;87937;-38
2023/03/19 12:25:15;;;;;;;;;;;5.80;69.40;;;;;;5013845;28;88941;-38
2023/03/19 12:27:41;;;;;;;;;;;5.80;69.30;;;;;;5015313;28;87465;-38
2023/03/19 12:30:25;;;;;;;;;;;5.80;69.20;;;;;;5004721;28;87195;-39
2023/03/19 12:33:09;;;;;;;;;;;5.90;69.40;;;;;;5019954;28;90926;-38
2023/03/19 12:35:39;;;;;;;;;;;5.90;69.30;;;;;;5019051;28;87090;-38
2023/03/19 12:38:16;;;;;;;;;;;5.90;69.30;;;;;;5004571;28;87218;-38
2023/03/19 12:40:54;;;;;;;;;;;6.00;69.30;;;;;;5007174;28;88492;-38
2023/03/19 12:43:37;;;;;;;;;;;6.00;69.20;;;;;;5003608;28;87886;-38
2023/03/19 12:46:08;;;;;;;;;;;6.00;69.20;;;;;;5004365;28;89806;-38
2023/03/19 12:48:49;;;;;;;;;;;6.10;69.30;;;;;;5011122;28;89453;-38
2023/03/19 12:51:16;;;;;;;;;;;6.10;69.20;;;;;;5020895;28;87219;-38
2023/03/19 12:53:45;;;;;;;;;;;6.20;69.30;;;;;;5017864;28;88975;-38
2023/03/19 12:56:30;;;;;;;;;;;6.20;69.20;;;;;;5004031;28;88964;-38
2023/03/19 12:59:04;;;;;;;;;;;6.20;69.20;;;;;;4982536;28;87214;-44
2023/03/19 13:01:33;;;;;;;;;;;6.20;69.20;;;;;;5005058;28;87607;-39
2023/03/19 13:04:07;;;;;;;;;;;6.30;69.20;;;;;;5006841;28;89589;-39
2023/03/19 13:06:51;;;;;;;;;;;6.30;69.20;;;;;;5004418;28;89447;-38
2023/03/19 13:09:22;;;;;;;;;;;6.30;69.20;;;;;;5017992;28;88924;-38
2023/03/19 13:11:51;;;;;;;;;;;6.40;69.20;;;;;;5003849;28;87237;-38
2023/03/19 13:14:17;;;;;;;;;;;6.40;69.20;;;;;;5003903;28;87785;-39
2023/03/19 13:16:42;;;;;;;;;;;6.40;69.10;;;;;;5003697;28;89970;-38
2023/03/19 13:19:30;;;;;;;;;;;6.50;69.30;;;;;;5003432;28;87571;-39
2023/03/19 13:21:58;;;;;;;;;;;6.50;69.20;;;;;;5006519;28;88342;-38
2023/03/19 13:24:25;;;;;;;;;;;6.50;69.10;;;;;;5017236;28;87997;-38
2023/03/19 13:26:52;;;;;;;;;;;6.60;69.20;;;;;;5022002;28;87178;-39
2023/03/19 13:29:23;;;;;;;;;;;6.60;69.20;;;;;;5019596;28;89691;-39
2023/03/19 13:31:49;;;;;;;;;;;6.60;69.10;;;;;;5017715;28;87318;-39
2023/03/19 13:34:19;;;;;;;;;;;6.70;69.10;;;;;;5016864;28;88894;-38
2023/03/19 13:36:46;;;;;;;;;;;6.70;69.10;;;;;;5021756;28;89359;-38
2023/03/19 13:39:15;;;;;;;;;;;6.70;69.10;;;;;;5016186;28;87778;-39
2023/03/19 13:41:41;;;;;;;;;;;6.80;69.10;;;;;;5013198;28;88580;-38
2023/03/19 13:44:25;;;;;;;;;;;6.80;69.10;;;;;;5003163;28;89392;-39
2023/03/19 13:46:51;;;;;;;;;;;6.80;69.20;;;;;;5019628;28;87172;-39
2023/03/19 13:49:34;;;;;;;;;;;6.90;69.50;;;;;;5023262;28;88827;-38
2023/03/19 13:52:08;;;;;;;;;;;6.90;69.40;;;;;;5020462;28;86503;-38
2023/03/19 13:54:35;;;;;;;;;;;7.00;69.40;;;;;;5017385;28;87886;-38
2023/03/19 13:57:16;;;;;;;;;;;7.00;69.30;;;;;;5021467;28;87953;-38
2023/03/19 13:59:43;;;;;;;;;;;7.00;69.50;;;;;;5018794;28;88191;-38
2023/03/19 14:02:21;;;;;;;;;;;7.10;69.50;;;;;;5019660;28;87718;-39
2023/03/19 14:04:55;;;;;;;;;;;7.10;69.80;;;;;;5018231;28;89041;-39
2023/03/19 14:07:23;;;;;;;;;;;7.20;70.00;;;;;;5018491;28;87697;-39
2023/03/19 14:09:50;;;;;;;;;;;7.20;70.10;;;;;;5018060;28;90164;-38
2023/03/19 14:12:22;;;;;;;;;;;7.20;70.10;;;;;;5018346;28;89196;-38
2023/03/19 14:14:50;;;;;;;;;;;7.20;70.20;;;;;;5002907;28;88834;-38
2023/03/19 14:17:19;;;;;;;;;;;7.30;70.20;;;;;;5002663;28;88959;-38
2023/03/19 14:19:44;;;;;;;;;;;7.40;70.40;;;;;;5002910;28;87030;-38
2023/03/19 14:22:28;;;;;;;;;;;7.40;70.20;;;;;;5002812;28;88791;-38
2023/03/19 14:24:54;;;;;;;;;;;7.40;70.20;;;;;;5002071;28;90226;-38
2023/03/19 14:27:24;;;;;;;;;;;7.50;70.40;;;;;;5002662;28;87780;-38
2023/03/19 14:29:49;;;;;;;;;;;7.50;70.20;;;;;;5018305;28;89782;-38
2023/03/19 14:32:17;;;;;;;;;;;7.50;70.30;;;;;;5023008;28;89586;-38
2023/03/19 14:34:44;;;;;;;;;;;7.60;70.50;;;;;;5019062;28;87947;-38